Météo Nord-Pas-de-Calais   La météo au plus près de chez vous

Station météorologique

Observations météo à Chartres (28070)

28070001 155 m Dernier relevé à 08:06
14.1°C
Humidité 86 % Vent 4.3 km/h 1024.3 hPa

Journée consultée

Dimanche 6 Septembre 2026

Synthèse de la journée

Périodes de référence en UTC

Température maximale

14.1°C

à 08:06

06h 06h

Température minimale

11.5°C

à 06:54

18h 18h

Rafale maximale

14 km/h

à 07:54

00h 00h

Précipitations

0 mm

Cumul quotidien

06h 06h

Ensoleillement

0h 11 mins

Durée quotidienne

00h 00h

Graphiques de la journée

Heure locale Réduire

Données détaillées

Relevés météo

Pas de 6 minutes Afficher les relevés infra-horaires
Relevés météo détaillés à Chartres pour le Dimanche 6 Septembre 2026
Heure Température °C Point de rosée °C Humidité % Vent moyen (raf.), km/h Précipitations mm Température à 10 cm °C Température à 20 cm °C Température à 50 cm °C Température à 100 cm °C Visibilité m État du sol   Hauteur neige cm Ensoleillement min Rayonnement global W/m² Pression hPa
08:06 14.1 °C 9.7 °C 75 % 8 km/h (13 km/h) 0 mm0 mm 20.7 °C 21.1 °C 20.7 °C 19.9 °C 20000 m 0   0 cm 3 min 19.6 W/m² 1024.1 hPa
08:00 13.6 °C 9.8 °C 78 % 9 km/h (14 km/h) 0 mm0 mm 20.7 °C 21.2 °C 20.8 °C 19.9 °C 20000 m 0   0 cm 5 min 18.1 W/m² 1024.1 hPa
07:54 12.9 °C 9.7 °C 81 % 8 km/h (14 km/h) 0 mm0 mm 20.7 °C 21.2 °C 20.8 °C 20 °C 20000 m 0   0 cm 3 min 11.1 W/m² 1024.2 hPa
07:48 12.3 °C 9.5 °C 83 % 6 km/h (9 km/h) 0 mm0 mm 20.8 °C 21.2 °C 20.8 °C 19.9 °C 20000 m 0   0 cm 0 min 0 W/m² 1024.3 hPa
07:42 11.7 °C 9.3 °C 85 % 4 km/h (7 km/h) 0 mm0 mm 20.8 °C 21.2 °C 20.8 °C 19.9 °C 20000 m 0   0 cm 0 min 0 W/m² 1024.4 hPa
07:36 11.6 °C 9 °C 84 % 3 km/h (5 km/h) 0 mm0 mm 20.8 °C 21.2 °C 20.8 °C 19.9 °C 20000 m 0   0 cm 0 min 0 W/m² 1024.4 hPa
07:30 11.7 °C 9.1 °C 84 % 4 km/h (7 km/h) 0 mm0 mm 20.8 °C 21.2 °C 20.8 °C 20 °C 20000 m 0   0 cm 0 min 0 W/m² 1024.3 hPa
07:24 11.8 °C 9.4 °C 85 % 5 km/h (8 km/h) 0 mm0 mm 20.8 °C 21.2 °C 20.8 °C 20 °C 20000 m 0   0 cm 0 min 0 W/m² 1024.2 hPa
07:18 11.8 °C 9.5 °C 86 % 5 km/h (8 km/h) 0 mm0 mm 20.9 °C 21.2 °C 20.8 °C 19.9 °C 20000 m 0   0 cm 0 min 0 W/m² 1024.2 hPa
07:12 11.8 °C 9.7 °C 87 % 5 km/h (7 km/h) 0 mm0 mm 20.9 °C 21.2 °C 20.8 °C 19.9 °C 20000 m 0   0 cm 0 min 0 W/m² 1024.2 hPa
07:06 11.8 °C 9.5 °C 86 % 4 km/h (7 km/h) 0 mm0 mm 20.9 °C 21.2 °C 20.8 °C 19.9 °C 20000 m 0   0 cm 0 min 0 W/m² 1024.3 hPa
07:00 11.7 °C 9.4 °C 86 % 3 km/h (5 km/h) 0 mm0 mm 20.9 °C 21.3 °C 20.7 °C 19.9 °C 20000 m 0   0 cm 0 min 0 W/m² 1024.4 hPa
06:54 11.5 °C 8.5 °C 82 % 2 km/h (3 km/h) 0 mm0 mm 20.9 °C 21.3 °C 20.7 °C 19.9 °C 20000 m 0   0 cm 0 min 0 W/m² 1024.7 hPa
06:48 11.6 °C 8.6 °C 82 % 2 km/h (3 km/h) 0 mm0 mm 20.9 °C 21.3 °C 20.8 °C 20 °C 20000 m 0   0 cm 0 min 0 W/m² 1024.7 hPa
06:42 11.9 °C 8.6 °C 80 % 2 km/h (3 km/h) 0 mm0 mm 20.9 °C 21.3 °C 20.8 °C 20 °C 20000 m 0   0 cm 0 min 0 W/m² 1024.5 hPa
06:36 12.2 °C 8.8 °C 80 % 2 km/h (3 km/h) 0 mm0 mm 21 °C 21.3 °C 20.7 °C 19.9 °C 20000 m 0   0 cm 0 min 0 W/m² 1024.4 hPa
06:30 12.5 °C 9 °C 79 % 3 km/h (4 km/h) 0 mm0 mm 21 °C 21.3 °C 20.7 °C 19.9 °C 20000 m 0   0 cm 0 min 0 W/m² 1024.5 hPa
06:24 12.8 °C 8.9 °C 77 % 4 km/h (5 km/h) 0 mm0 mm 21 °C 21.3 °C 20.8 °C 19.9 °C 20000 m 0   0 cm 0 min 0 W/m² 1024.5 hPa
06:18 13.1 °C 9.2 °C 77 % 5 km/h (8 km/h) 0 mm0 mm 21 °C 21.3 °C 20.7 °C 19.9 °C 20000 m 0   0 cm 0 min 0 W/m² 1024.3 hPa
06:12 13.3 °C 9.4 °C 77 % 5 km/h (8 km/h) 0 mm0 mm 21 °C 21.3 °C 20.8 °C 19.9 °C 20000 m 0   0 cm 0 min 0 W/m² 1024.3 hPa
06:06 13.4 °C 9.4 °C 77 % 5 km/h (10 km/h) 0 mm0 mm 21 °C 21.4 °C 20.7 °C 19.9 °C 20000 m 0   0 cm 0 min 0 W/m² 1024.4 hPa
06:00 13.4 °C 9.4 °C 77 % 6 km/h (10 km/h) 0 mm0 mm 21 °C 21.4 °C 20.8 °C 19.9 °C 20000 m 0   0 cm 0 min 0 W/m² 1024.4 hPa
05:54 13.4 °C 9.6 °C 78 % 5 km/h (8 km/h) 0 mm0 mm 21.1 °C 21.4 °C 20.8 °C 19.9 °C 20000 m 0   0 cm 0 min 0 W/m² 1024.4 hPa
05:48 13.4 °C 9.6 °C 78 % 5 km/h (8 km/h) 0 mm0 mm 21.1 °C 21.4 °C 20.8 °C 20 °C 20000 m 0   0 cm 0 min 0 W/m² 1024.5 hPa
05:42 13.5 °C 9.7 °C 78 % 6 km/h (10 km/h) 0 mm0 mm 21.1 °C 21.4 °C 20.8 °C 19.9 °C 20000 m 0   0 cm 0 min 0 W/m² 1024.4 hPa
05:36 13.5 °C 9.7 °C 78 % 8 km/h (11 km/h) 0 mm0 mm 21.1 °C 21.4 °C 20.8 °C 19.9 °C 20000 m 0   0 cm 0 min 0 W/m² 1024.4 hPa
05:30 13.4 °C 9.8 °C 79 % 8 km/h (13 km/h) 0 mm0 mm 21.2 °C 21.4 °C 20.8 °C 19.9 °C 20000 m 0   0 cm 0 min 0 W/m² 1024.4 hPa
05:24 13.2 °C 9.8 °C 80 % 8 km/h (13 km/h) 0 mm0 mm 21.2 °C 21.4 °C 20.8 °C 19.9 °C 20000 m 0   0 cm 0 min 0 W/m² 1024.4 hPa
05:18 12.8 °C 9.8 °C 82 % 7 km/h (10 km/h) 0 mm0 mm 21.2 °C 21.4 °C 20.7 °C 19.9 °C 20000 m 0   0 cm 0 min 0 W/m² 1024.6 hPa
05:12 12.6 °C 9.8 °C 83 % 6 km/h (9 km/h) 0 mm0 mm 21.2 °C 21.5 °C 20.8 °C 19.9 °C 20000 m 0   0 cm 0 min 0 W/m² 1024.7 hPa
05:06 12.5 °C 9.9 °C 84 % 4 km/h (8 km/h) 0 mm0 mm 21.2 °C 21.5 °C 20.8 °C 19.9 °C 20000 m 0   0 cm 0 min 0 W/m² 1024.8 hPa
05:00 12.4 °C 9.8 °C 84 % 3 km/h (6 km/h) 0 mm0 mm 21.2 °C 21.5 °C 20.8 °C 19.9 °C 20000 m 0   0 cm 0 min 0 W/m² 1024.9 hPa
04:54 12.3 °C 9.5 °C 83 % 3 km/h (6 km/h) 0 mm0 mm 21.3 °C 21.5 °C 20.7 °C 19.9 °C 20000 m 0   0 cm 0 min 0 W/m² 1024.9 hPa
04:48 12.5 °C 9.7 °C 83 % 4 km/h (6 km/h) 0 mm0 mm 21.3 °C 21.5 °C 20.7 °C 19.9 °C 20000 m 0   0 cm 0 min 0 W/m² 1025 hPa
04:42 12.6 °C 9.8 °C 83 % 4 km/h (6 km/h) 0 mm0 mm 21.3 °C 21.5 °C 20.7 °C 19.9 °C 20000 m 0   0 cm 0 min 0 W/m² 1025 hPa
04:36 12.6 °C 9.8 °C 83 % 4 km/h (5 km/h) 0 mm0 mm 21.3 °C 21.5 °C 20.7 °C 19.9 °C 20000 m 0   0 cm 0 min 0 W/m² 1025.1 hPa
04:30 12.5 °C 9.7 °C 83 % 5 km/h (7 km/h) 0 mm0 mm 21.3 °C 21.5 °C 20.7 °C 19.9 °C 20000 m 0   0 cm 0 min 0 W/m² 1025.1 hPa
04:24 12.5 °C 9.5 °C 82 % 4 km/h (7 km/h) 0 mm0 mm 21.4 °C 21.5 °C 20.7 °C 19.9 °C 20000 m 0   0 cm 0 min 0 W/m² 1025.2 hPa
04:18 12.4 °C 9.2 °C 81 % 2 km/h (4 km/h) 0 mm0 mm 21.4 °C 21.5 °C 20.7 °C 19.9 °C 20000 m 0   0 cm 0 min 0 W/m² 1025.3 hPa
04:12 12.6 °C 9.2 °C 80 % 0 km/h (4 km/h) 0 mm0 mm 21.4 °C 21.5 °C 20.7 °C 19.9 °C 0   0 cm 0 min 0 W/m² 1025.4 hPa
04:06 12.8 °C 9.4 °C 80 % 3 km/h (6 km/h) 0 mm0 mm 21.4 °C 21.6 °C 20.7 °C 19.9 °C 20000 m 0   0 cm 0 min 0 W/m² 1025.3 hPa
04:00 13 °C 9.6 °C 80 % 4 km/h (7 km/h) 0 mm0 mm 21.5 °C 21.6 °C 20.7 °C 19.9 °C 20000 m 0   0 cm 0 min 0 W/m² 1025.3 hPa
03:54 13.1 °C 9.5 °C 79 % 5 km/h (8 km/h) 0 mm0 mm 21.4 °C 21.6 °C 20.7 °C 19.9 °C 20000 m 0   0 cm 0 min 0 W/m² 1025.3 hPa
03:48 13.3 °C 9.5 °C 78 % 5 km/h (9 km/h) 0 mm0 mm 21.5 °C 21.6 °C 20.7 °C 19.9 °C 20000 m 0   0 cm 0 min 0 W/m² 1025.3 hPa
03:42 13.4 °C 9.6 °C 78 % 4 km/h (7 km/h) 0 mm0 mm 21.5 °C 21.6 °C 20.7 °C 19.9 °C 20000 m 0   0 cm 0 min 0 W/m² 1025.3 hPa
03:36 13.3 °C 9.7 °C 79 % 5 km/h (9 km/h) 0 mm0 mm 21.5 °C 21.6 °C 20.7 °C 19.9 °C 20000 m 0   0 cm 0 min 0 W/m² 1025.4 hPa
03:30 13.1 °C 9.7 °C 80 % 5 km/h (9 km/h) 0 mm0 mm 21.5 °C 21.6 °C 20.7 °C 19.9 °C 20000 m 0   0 cm 0 min 0 W/m² 1025.4 hPa
03:24 12.8 °C 9.4 °C 80 % 5 km/h (7 km/h) 0 mm0 mm 21.5 °C 21.6 °C 20.8 °C 19.9 °C 20000 m 0   0 cm 0 min 0 W/m² 1025.4 hPa
03:18 12.9 °C 9.5 °C 80 % 5 km/h (7 km/h) 0 mm0 mm 21.6 °C 21.7 °C 20.7 °C 19.9 °C 20000 m 0   0 cm 0 min 0 W/m² 1025.6 hPa
03:12 12.9 °C 9.5 °C 80 % 4 km/h (6 km/h) 0 mm0 mm 21.6 °C 21.7 °C 20.7 °C 19.9 °C 20000 m 0   0 cm 0 min 0 W/m² 1025.6 hPa
03:06 12.9 °C 9.3 °C 79 % 3 km/h (5 km/h) 0 mm0 mm 21.6 °C 21.7 °C 20.7 °C 19.9 °C 20000 m 0   0 cm 0 min 0 W/m² 1025.7 hPa
03:00 13.1 °C 9.2 °C 77 % 3 km/h (4 km/h) 0 mm0 mm 21.6 °C 21.7 °C 20.7 °C 19.9 °C 20000 m 0   0 cm 0 min 0 W/m² 1025.7 hPa
02:54 13.3 °C 9.2 °C 76 % 3 km/h (4 km/h) 0 mm0 mm 21.6 °C 21.7 °C 20.7 °C 20 °C 20000 m 0   0 cm 0 min 0 W/m² 1025.8 hPa
02:48 13.6 °C 9.4 °C 76 % 4 km/h (6 km/h) 0 mm0 mm 21.7 °C 21.7 °C 20.7 °C 19.9 °C 20000 m 0   0 cm 0 min 0 W/m² 1025.7 hPa
02:42 13.8 °C 9.6 °C 76 % 5 km/h (6 km/h) 0 mm0 mm 21.7 °C 21.7 °C 20.7 °C 19.9 °C 20000 m 0   0 cm 0 min 0 W/m² 1025.6 hPa
02:36 13.8 °C 9.4 °C 75 % 5 km/h (6 km/h) 0 mm0 mm 21.7 °C 21.7 °C 20.7 °C 19.9 °C 20000 m 0   0 cm 0 min 0 W/m² 1025.7 hPa
02:30 13.9 °C 9.5 °C 75 % 4 km/h (6 km/h) 0 mm0 mm 21.7 °C 21.7 °C 20.7 °C 19.9 °C 20000 m 0   0 cm 0 min 0 W/m² 1025.8 hPa
02:24 13.9 °C 9.3 °C 74 % 5 km/h (8 km/h) 0 mm0 mm 21.7 °C 21.7 °C 20.7 °C 19.9 °C 20000 m 0   0 cm 0 min 0 W/m² 1025.7 hPa
02:18 14.1 °C 9.5 °C 74 % 7 km/h (10 km/h) 0 mm0 mm 21.8 °C 21.8 °C 20.8 °C 20 °C 20000 m 0   0 cm 0 min 0 W/m² 1025.7 hPa
02:12 14.1 °C 9.5 °C 74 % 8 km/h (11 km/h) 0 mm0 mm 21.8 °C 21.7 °C 20.7 °C 19.9 °C 20000 m 0   0 cm 0 min 0 W/m² 1025.7 hPa
02:06 14.3 °C 9.5 °C 73 % 8 km/h (13 km/h) 0 mm0 mm 21.8 °C 21.7 °C 20.7 °C 19.9 °C 20000 m 0   0 cm 0 min 0 W/m² 1025.6 hPa
02:00 14.2 °C 9.4 °C 73 % 7 km/h (12 km/h) 0 mm0 mm 21.8 °C 21.8 °C 20.7 °C 19.9 °C 20000 m 0   0 cm 0 min 0 W/m² 1025.6 hPa
01:54 14.2 °C 9.4 °C 73 % 6 km/h (8 km/h) 0 mm0 mm 21.8 °C 21.8 °C 20.7 °C 19.9 °C 20000 m 0   0 cm 0 min 0 W/m² 1025.8 hPa
01:48 14.1 °C 9.5 °C 74 % 6 km/h (8 km/h) 0 mm0 mm 21.8 °C 21.8 °C 20.7 °C 19.9 °C 20000 m 0   0 cm 0 min 0 W/m² 1025.7 hPa
01:42 13.5 °C 9.2 °C 75 % 5 km/h (7 km/h) 0 mm0 mm 21.9 °C 21.8 °C 20.7 °C 19.9 °C 20000 m 0   0 cm 0 min 0 W/m² 1025.7 hPa
01:36 13.6 °C 9.4 °C 76 % 3 km/h (6 km/h) 0 mm0 mm 21.9 °C 21.8 °C 20.7 °C 19.9 °C 20000 m 0   0 cm 0 min 0 W/m² 1025.7 hPa
01:30 13.6 °C 9 °C 74 % 3 km/h (4 km/h) 0 mm0 mm 21.9 °C 21.8 °C 20.7 °C 19.9 °C 20000 m 0   0 cm 0 min 0 W/m² 1025.7 hPa
01:24 13.7 °C 9.1 °C 74 % 4 km/h (4 km/h) 0 mm0 mm 21.9 °C 21.8 °C 20.7 °C 19.9 °C 20000 m 0   0 cm 0 min 0 W/m² 1025.7 hPa
01:18 13.7 °C 9.3 °C 75 % 3 km/h (4 km/h) 0 mm0 mm 21.9 °C 21.8 °C 20.7 °C 19.9 °C 20000 m 0   0 cm 0 min 0 W/m² 1025.6 hPa
01:12 13.8 °C 9.4 °C 75 % 3 km/h (4 km/h) 0 mm0 mm 22 °C 21.8 °C 20.7 °C 19.9 °C 20000 m 0   0 cm 0 min 0 W/m² 1025.6 hPa
01:06 13.7 °C 9.3 °C 75 % 4 km/h (4 km/h) 0 mm0 mm 22 °C 21.8 °C 20.7 °C 19.9 °C 20000 m 0   0 cm 0 min 0 W/m² 1025.7 hPa
01:00 13.7 °C 8.9 °C 73 % 3 km/h (4 km/h) 0 mm0 mm 22 °C 21.8 °C 20.7 °C 19.9 °C 20000 m 0   0 cm 0 min 0 W/m² 1025.6 hPa
00:54 13.8 °C 8.8 °C 72 % 3 km/h (4 km/h) 0 mm0 mm 22 °C 21.8 °C 20.7 °C 19.9 °C 20000 m 0   0 cm 0 min 0 W/m² 1025.7 hPa
00:48 14.1 °C 8.9 °C 71 % 2 km/h (3 km/h) 0 mm0 mm 22 °C 21.9 °C 20.7 °C 20 °C 20000 m 0   0 cm 0 min 0 W/m² 1025.7 hPa
00:42 14.3 °C 8.9 °C 70 % 2 km/h (3 km/h) 0 mm0 mm 22.1 °C 21.9 °C 20.7 °C 19.9 °C 20000 m 0   0 cm 0 min 0 W/m² 1025.8 hPa
00:36 14.5 °C 8.9 °C 69 % 2 km/h (3 km/h) 0 mm0 mm 22.1 °C 21.9 °C 20.7 °C 19.9 °C 20000 m 0   0 cm 0 min 0 W/m² 1025.8 hPa
00:30 14.8 °C 9.2 °C 69 % 2 km/h (4 km/h) 0 mm0 mm 22.1 °C 21.9 °C 20.7 °C 19.9 °C 20000 m 0   0 cm 0 min 0 W/m² 1025.8 hPa
00:24 15.2 °C 9.1 °C 67 % 3 km/h (6 km/h) 0 mm0 mm 22.1 °C 21.9 °C 20.7 °C 19.9 °C 20000 m 0   0 cm 0 min 0 W/m² 1025.7 hPa
00:18 15.5 °C 9.2 °C 66 % 5 km/h (7 km/h) 0 mm0 mm 22.1 °C 21.9 °C 20.7 °C 19.9 °C 20000 m 0   0 cm 0 min 0 W/m² 1025.7 hPa
00:12 15.6 °C 9.5 °C 67 % 6 km/h (9 km/h) 0 mm0 mm 22.2 °C 21.9 °C 20.7 °C 19.9 °C 20000 m 0   0 cm 0 min 0 W/m² 1025.6 hPa
00:06 15.5 °C 9.4 °C 67 % 8 km/h (10 km/h) 0 mm0 mm 22.2 °C 21.9 °C 20.7 °C 19.9 °C 20000 m 0   0 cm 0 min 0 W/m² 1025.4 hPa
00:00 15.5 °C 9.4 °C 67 % 6 km/h (10 km/h) 0 mm0 mm 22.2 °C 21.9 °C 20.7 °C 19.9 °C 20000 m 0   0 cm 0 min 0 W/m² 1025.4 hPa

Données via Météo-France

Relevés météo à Chartres

Cette page rassemble les observations de la station de Chartres : température, humidité, vent, précipitations et pression atmosphérique. Les graphiques facilitent le suivi de la journée, tandis que le tableau donne accès aux mesures horaires et infra-horaires disponibles.

Pour replacer ces mesures dans leur contexte, consultez la climatologie de Chartres ainsi que ses normales et records. Retrouvez aussi la carte des observations météo en temps réel.